sensor_id;sensor_type;location;lat;lon;timestamp;pressure;altitude;pressure_sealevel;temperature
70435;BMP280;57876;47.792;12.960;2022-09-21T00:00:45;97577.47;;;17.93
70435;BMP280;57876;47.792;12.960;2022-09-21T00:03:10;97576.00;;;17.92
70435;BMP280;57876;47.792;12.960;2022-09-21T00:05:34;97582.22;;;17.93
70435;BMP280;57876;47.792;12.960;2022-09-21T00:08:04;97578.72;;;17.92
70435;BMP280;57876;47.792;12.960;2022-09-21T00:10:29;97576.00;;;17.92
70435;BMP280;57876;47.792;12.960;2022-09-21T00:12:54;97585.66;;;17.93
70435;BMP280;57876;47.792;12.960;2022-09-21T00:15:20;97576.00;;;17.92
70435;BMP280;57876;47.792;12.960;2022-09-21T00:17:45;97578.22;;;17.94
70435;BMP280;57876;47.792;12.960;2022-09-21T00:20:10;97576.00;;;17.92
70435;BMP280;57876;47.792;12.960;2022-09-21T00:22:35;97572.53;;;17.92
70435;BMP280;57876;47.792;12.960;2022-09-21T00:25:00;97572.53;;;17.92
70435;BMP280;57876;47.792;12.960;2022-09-21T00:27:28;97569.06;;;17.92
70435;BMP280;57876;47.792;12.960;2022-09-21T00:29:53;97570.53;;;17.92
70435;BMP280;57876;47.792;12.960;2022-09-21T00:32:18;97572.53;;;17.92
70435;BMP280;57876;47.792;12.960;2022-09-21T00:34:43;97572.53;;;17.92
70435;BMP280;57876;47.792;12.960;2022-09-21T00:37:07;97582.03;;;17.91
70435;BMP280;57876;47.792;12.960;2022-09-21T00:39:32;97574.53;;;17.92
70435;BMP280;57876;47.792;12.960;2022-09-21T00:41:56;97584.97;;;17.93
70435;BMP280;57876;47.792;12.960;2022-09-21T00:46:47;97578.00;;;17.92
70435;BMP280;57876;47.792;12.960;2022-09-21T00:49:13;97588.22;;;17.92
70435;BMP280;57876;47.792;12.960;2022-09-21T00:51:38;97579.28;;;17.91
70435;BMP280;57876;47.792;12.960;2022-09-21T00:54:09;97579.28;;;17.91
70435;BMP280;57876;47.792;12.960;2022-09-21T00:56:36;97576.56;;;17.91
70435;BMP280;57876;47.792;12.960;2022-09-21T00:59:01;97573.81;;;17.91
70435;BMP280;57876;47.792;12.960;2022-09-21T01:01:26;97577.84;;;17.90
70435;BMP280;57876;47.792;12.960;2022-09-21T01:03:52;97591.72;;;17.92
70435;BMP280;57876;47.792;12.960;2022-09-21T01:06:20;97576.56;;;17.91
70435;BMP280;57876;47.792;12.960;2022-09-21T01:08:47;97573.81;;;17.91
70435;BMP280;57876;47.792;12.960;2022-09-21T01:11:28;97573.81;;;17.91
70435;BMP280;57876;47.792;12.960;2022-09-21T01:14:19;97580.00;;;17.92
70435;BMP280;57876;47.792;12.960;2022-09-21T01:17:14;97578.56;;;17.91
70435;BMP280;57876;47.792;12.960;2022-09-21T01:31:28;97586.03;;;17.90
70435;BMP280;57876;47.792;12.960;2022-09-21T01:33:59;97587.31;;;17.89
70435;BMP280;57876;47.792;12.960;2022-09-21T01:36:27;97581.84;;;17.89
70435;BMP280;57876;47.792;12.960;2022-09-21T01:39:10;97583.31;;;17.90
70435;BMP280;57876;47.792;12.960;2022-09-21T01:41:37;97580.56;;;17.90
70435;BMP280;57876;47.792;12.960;2022-09-21T01:44:07;97581.13;;;17.89
70435;BMP280;57876;47.792;12.960;2022-09-21T01:46:32;97583.31;;;17.90
70435;BMP280;57876;47.792;12.960;2022-09-21T01:49:01;97579.84;;;17.90
70435;BMP280;57876;47.792;12.960;2022-09-21T01:51:28;97577.13;;;17.90
70435;BMP280;57876;47.792;12.960;2022-09-21T01:54:06;97586.03;;;17.90
70435;BMP280;57876;47.792;12.960;2022-09-21T01:56:36;97586.03;;;17.90
70435;BMP280;57876;47.792;12.960;2022-09-21T01:59:12;97585.31;;;17.90
70435;BMP280;57876;47.792;12.960;2022-09-21T02:01:51;97575.66;;;17.89
70435;BMP280;57876;47.792;12.960;2022-09-21T02:04:16;97585.31;;;17.90
70435;BMP280;57876;47.792;12.960;2022-09-21T02:06:44;97587.31;;;17.89
70435;BMP280;57876;47.792;12.960;2022-09-21T02:09:09;97579.09;;;17.89
70435;BMP280;57876;47.792;12.960;2022-09-21T02:11:34;97577.63;;;17.88
70435;BMP280;57876;47.792;12.960;2022-09-21T02:14:05;97583.88;;;17.89
70435;BMP280;57876;47.792;12.960;2022-09-21T02:16:38;97578.38;;;17.89
70435;BMP280;57876;47.792;12.960;2022-09-21T02:32:27;97578.91;;;17.87
70435;BMP280;57876;47.792;12.960;2022-09-21T02:34:59;97576.19;;;17.87
70435;BMP280;57876;47.792;12.960;2022-09-21T02:37:46;97578.19;;;17.87
70435;BMP280;57876;47.792;12.960;2022-09-21T02:40:32;97596.09;;;17.88
70435;BMP280;57876;47.792;12.960;2022-09-21T02:43:16;97578.38;;;17.89
70435;BMP280;57876;47.792;12.960;2022-09-21T02:45:49;97577.47;;;17.86
70435;BMP280;57876;47.792;12.960;2022-09-21T02:48:17;97582.25;;;17.86
70435;BMP280;57876;47.792;12.960;2022-09-21T02:50:51;97579.50;;;17.86
70435;BMP280;57876;47.792;12.960;2022-09-21T02:53:20;97587.13;;;17.87
70435;BMP280;57876;47.792;12.960;2022-09-21T02:55:47;97589.16;;;17.87
70435;BMP280;57876;47.792;12.960;2022-09-21T02:58:13;97588.44;;;17.86
70435;BMP280;57876;47.792;12.960;2022-09-21T03:00:39;97584.41;;;17.87
70435;BMP280;57876;47.792;12.960;2022-09-21T03:03:23;97582.25;;;17.86
70435;BMP280;57876;47.792;12.960;2022-09-21T03:05:51;97593.91;;;17.86
70435;BMP280;57876;47.792;12.960;2022-09-21T03:08:16;97591.16;;;17.86
70435;BMP280;57876;47.792;12.960;2022-09-21T03:10:40;97592.44;;;17.85
70435;BMP280;57876;47.792;12.960;2022-09-21T03:13:06;97588.44;;;17.86
70435;BMP280;57876;47.792;12.960;2022-09-21T03:15:32;97593.19;;;17.86
70435;BMP280;57876;47.792;12.960;2022-09-21T03:17:56;97588.44;;;17.86
70435;BMP280;57876;47.792;12.960;2022-09-21T03:20:21;97590.44;;;17.86
70435;BMP280;57876;47.792;12.960;2022-09-21T03:22:45;97592.44;;;17.85
70435;BMP280;57876;47.792;12.960;2022-09-21T03:25:09;97601.41;;;17.86
70435;BMP280;57876;47.792;12.960;2022-09-21T03:27:36;97600.66;;;17.85
70435;BMP280;57876;47.792;12.960;2022-09-21T03:30:00;97592.44;;;17.85
70435;BMP280;57876;47.792;12.960;2022-09-21T03:32:25;97602.69;;;17.85
70435;BMP280;57876;47.792;12.960;2022-09-21T03:34:49;97599.94;;;17.85
70435;BMP280;57876;47.792;12.960;2022-09-21T03:37:14;97607.41;;;17.84
70435;BMP280;57876;47.792;12.960;2022-09-21T03:39:39;97611.59;;;17.85
70435;BMP280;57876;47.792;12.960;2022-09-21T03:42:03;97614.91;;;17.84
70435;BMP280;57876;47.792;12.960;2022-09-21T03:44:28;97606.13;;;17.85
70435;BMP280;57876;47.792;12.960;2022-09-21T03:46:52;97605.41;;;17.85
70435;BMP280;57876;47.792;12.960;2022-09-21T03:49:18;97601.94;;;17.84
70435;BMP280;57876;47.792;12.960;2022-09-21T03:51:43;97607.41;;;17.84
70435;BMP280;57876;47.792;12.960;2022-09-21T03:54:07;97615.09;;;17.86
70435;BMP280;57876;47.792;12.960;2022-09-21T03:56:32;97599.94;;;17.85
70435;BMP280;57876;47.792;12.960;2022-09-21T03:58:56;97609.63;;;17.86
70435;BMP280;57876;47.792;12.960;2022-09-21T04:01:21;97608.88;;;17.85
70435;BMP280;57876;47.792;12.960;2022-09-21T04:03:45;97606.13;;;17.85
70435;BMP280;57876;47.792;12.960;2022-09-21T04:06:11;97608.88;;;17.85
70435;BMP280;57876;47.792;12.960;2022-09-21T04:08:35;97619.09;;;17.85
70435;BMP280;57876;47.792;12.960;2022-09-21T04:11:00;97619.81;;;17.85
70435;BMP280;57876;47.792;12.960;2022-09-21T04:13:25;97617.84;;;17.86
70435;BMP280;57876;47.792;12.960;2022-09-21T04:15:49;97621.84;;;17.85
70435;BMP280;57876;47.792;12.960;2022-09-21T04:18:14;97633.50;;;17.85
70435;BMP280;57876;47.792;12.960;2022-09-21T04:20:38;97615.63;;;17.84
70435;BMP280;57876;47.792;12.960;2022-09-21T04:23:02;97624.59;;;17.85
70435;BMP280;57876;47.792;12.960;2022-09-21T04:25:27;97618.34;;;17.84
70435;BMP280;57876;47.792;12.960;2022-09-21T04:27:51;97624.59;;;17.85
70435;BMP280;57876;47.792;12.960;2022-09-21T04:30:16;97628.03;;;17.85
70435;BMP280;57876;47.792;12.960;2022-09-21T04:32:40;97628.78;;;17.86
70435;BMP280;57876;47.792;12.960;2022-09-21T04:35:05;97617.63;;;17.84
70435;BMP280;57876;47.792;12.960;2022-09-21T04:37:30;97615.63;;;17.84
70435;BMP280;57876;47.792;12.960;2022-09-21T04:39:54;97621.09;;;17.84
70435;BMP280;57876;47.792;12.960;2022-09-21T04:42:19;97621.09;;;17.84
70435;BMP280;57876;47.792;12.960;2022-09-21T04:44:43;97623.84;;;17.84
70435;BMP280;57876;47.792;12.960;2022-09-21T04:47:08;97631.31;;;17.84
70435;BMP280;57876;47.792;12.960;2022-09-21T04:49:32;97628.59;;;17.84
70435;BMP280;57876;47.792;12.960;2022-09-21T04:51:57;97634.78;;;17.84
70435;BMP280;57876;47.792;12.960;2022-09-21T04:54:21;97632.03;;;17.84
70435;BMP280;57876;47.792;12.960;2022-09-21T04:56:45;97630.59;;;17.83
70435;BMP280;57876;47.792;12.960;2022-09-21T04:59:10;97634.06;;;17.84
70435;BMP280;57876;47.792;12.960;2022-09-21T05:01:34;97641.53;;;17.83
70435;BMP280;57876;47.792;12.960;2022-09-21T05:03:58;97635.31;;;17.83
70435;BMP280;57876;47.792;12.960;2022-09-21T05:06:25;97633.31;;;17.83
70435;BMP280;57876;47.792;12.960;2022-09-21T05:08:49;97649.75;;;17.83
70435;BMP280;57876;47.792;12.960;2022-09-21T05:11:32;97657.22;;;17.83
70435;BMP280;57876;47.792;12.960;2022-09-21T05:13:57;97649.75;;;17.83
70435;BMP280;57876;47.792;12.960;2022-09-21T05:16:21;97649.75;;;17.83
70435;BMP280;57876;47.792;12.960;2022-09-21T05:18:46;97652.47;;;17.83
70435;BMP280;57876;47.792;12.960;2022-09-21T05:21:12;97647.56;;;17.82
70435;BMP280;57876;47.792;12.960;2022-09-21T05:23:36;97655.22;;;17.83
70435;BMP280;57876;47.792;12.960;2022-09-21T05:26:01;97655.22;;;17.83
70435;BMP280;57876;47.792;12.960;2022-09-21T05:28:26;97661.44;;;17.84
70435;BMP280;57876;47.792;12.960;2022-09-21T05:31:08;97657.22;;;17.83
70435;BMP280;57876;47.792;12.960;2022-09-21T05:33:36;97651.03;;;17.82
70435;BMP280;57876;47.792;12.960;2022-09-21T05:38:33;97651.03;;;17.82
70435;BMP280;57876;47.792;12.960;2022-09-21T05:40:58;97660.69;;;17.83
70435;BMP280;57876;47.792;12.960;2022-09-21T05:43:22;97666.16;;;17.83
70435;BMP280;57876;47.792;12.960;2022-09-21T05:45:53;97659.94;;;17.83
70435;BMP280;57876;47.792;12.960;2022-09-21T05:56:09;97665.41;;;17.83
70435;BMP280;57876;47.792;12.960;2022-09-21T05:58:49;97672.91;;;17.82
70435;BMP280;57876;47.792;12.960;2022-09-21T06:03:44;97668.16;;;17.83
70435;BMP280;57876;47.792;12.960;2022-09-21T06:06:11;97673.63;;;17.83
70435;BMP280;57876;47.792;12.960;2022-09-21T06:08:36;97668.16;;;17.83
70435;BMP280;57876;47.792;12.960;2022-09-21T06:11:00;97674.38;;;17.83
70435;BMP280;57876;47.792;12.960;2022-09-21T06:13:24;97680.41;;;17.82
70435;BMP280;57876;47.792;12.960;2022-09-21T06:15:49;97672.91;;;17.82
70435;BMP280;57876;47.792;12.960;2022-09-21T06:18:14;97673.63;;;17.83
70435;BMP280;57876;47.792;12.960;2022-09-21T06:20:38;97666.16;;;17.83
70435;BMP280;57876;47.792;12.960;2022-09-21T06:23:04;97672.91;;;17.82
70435;BMP280;57876;47.792;12.960;2022-09-21T06:25:29;97675.13;;;17.84
70435;BMP280;57876;47.792;12.960;2022-09-21T06:27:53;97670.91;;;17.83
70435;BMP280;57876;47.792;12.960;2022-09-21T06:30:17;97679.13;;;17.83
70435;BMP280;57876;47.792;12.960;2022-09-21T06:32:42;97674.38;;;17.83
70435;BMP280;57876;47.792;12.960;2022-09-21T06:35:06;97679.84;;;17.83
70435;BMP280;57876;47.792;12.960;2022-09-21T06:37:31;97685.34;;;17.83
70435;BMP280;57876;47.792;12.960;2022-09-21T06:39:55;97685.34;;;17.83
70435;BMP280;57876;47.792;12.960;2022-09-21T06:42:20;97689.53;;;17.84
70435;BMP280;57876;47.792;12.960;2022-09-21T06:44:44;97692.28;;;17.84
70435;BMP280;57876;47.792;12.960;2022-09-21T06:47:08;97686.78;;;17.84
70435;BMP280;57876;47.792;12.960;2022-09-21T06:49:33;97691.56;;;17.84
70435;BMP280;57876;47.792;12.960;2022-09-21T06:51:57;97690.28;;;17.85
70435;BMP280;57876;47.792;12.960;2022-09-21T06:54:21;97688.25;;;17.85
70435;BMP280;57876;47.792;12.960;2022-09-21T06:56:47;97692.28;;;17.84
70435;BMP280;57876;47.792;12.960;2022-09-21T06:59:12;97691.00;;;17.85
70435;BMP280;57876;47.792;12.960;2022-09-21T07:01:36;97696.47;;;17.85
70435;BMP280;57876;47.792;12.960;2022-09-21T07:04:00;97691.75;;;17.86
70435;BMP280;57876;47.792;12.960;2022-09-21T07:06:25;97693.03;;;17.85
70435;BMP280;57876;47.792;12.960;2022-09-21T07:08:52;97699.22;;;17.85
70435;BMP280;57876;47.792;12.960;2022-09-21T07:11:17;97688.25;;;17.85
70435;BMP280;57876;47.792;12.960;2022-09-21T07:13:42;97699.22;;;17.85
70435;BMP280;57876;47.792;12.960;2022-09-21T07:16:08;97691.16;;;17.87
70435;BMP280;57876;47.792;12.960;2022-09-21T07:18:33;97693.91;;;17.87
70435;BMP280;57876;47.792;12.960;2022-09-21T07:20:57;97692.47;;;17.86
70435;BMP280;57876;47.792;12.960;2022-09-21T07:23:22;97697.38;;;17.88
70435;BMP280;57876;47.792;12.960;2022-09-21T07:25:47;97696.63;;;17.87
70435;BMP280;57876;47.792;12.960;2022-09-21T07:28:13;97693.91;;;17.87
70435;BMP280;57876;47.792;12.960;2022-09-21T07:30:39;97704.84;;;17.87
70435;BMP280;57876;47.792;12.960;2022-09-21T07:33:04;97702.84;;;17.88
70435;BMP280;57876;47.792;12.960;2022-09-21T07:35:28;97707.78;;;17.89
70435;BMP280;57876;47.792;12.960;2022-09-21T07:37:53;97701.03;;;17.90
70435;BMP280;57876;47.792;12.960;2022-09-21T07:40:19;97703.78;;;17.90
70435;BMP280;57876;47.792;12.960;2022-09-21T07:42:44;97699.56;;;17.89
70435;BMP280;57876;47.792;12.960;2022-09-21T07:45:09;97707.25;;;17.91
70435;BMP280;57876;47.792;12.960;2022-09-21T07:47:33;97706.50;;;17.90
70435;BMP280;57876;47.792;12.960;2022-09-21T07:49:58;97710.72;;;17.91
70435;BMP280;57876;47.792;12.960;2022-09-21T07:52:22;97702.50;;;17.91
70435;BMP280;57876;47.792;12.960;2022-09-21T07:54:46;97699.03;;;17.91
70435;BMP280;57876;47.792;12.960;2022-09-21T07:57:11;97692.25;;;17.92
70435;BMP280;57876;47.792;12.960;2022-09-21T07:59:53;97699.75;;;17.91
70435;BMP280;57876;47.792;12.960;2022-09-21T08:02:21;97705.22;;;17.91
70435;BMP280;57876;47.792;12.960;2022-09-21T08:04:45;97695.00;;;17.92
70435;BMP280;57876;47.792;12.960;2022-09-21T08:07:10;97700.47;;;17.92
70435;BMP280;57876;47.792;12.960;2022-09-21T08:09:34;97701.94;;;17.92
70435;BMP280;57876;47.792;12.960;2022-09-21T08:11:58;97703.97;;;17.92
70435;BMP280;57876;47.792;12.960;2022-09-21T08:14:24;97703.97;;;17.92
70435;BMP280;57876;47.792;12.960;2022-09-21T08:16:48;97704.69;;;17.92
70435;BMP280;57876;47.792;12.960;2022-09-21T08:19:13;97703.97;;;17.92
70435;BMP280;57876;47.792;12.960;2022-09-21T08:21:38;97705.44;;;17.93
70435;BMP280;57876;47.792;12.960;2022-09-21T08:24:02;97701.94;;;17.92
70435;BMP280;57876;47.792;12.960;2022-09-21T08:26:26;97703.97;;;17.92
70435;BMP280;57876;47.792;12.960;2022-09-21T08:28:52;97697.75;;;17.92
70435;BMP280;57876;47.792;12.960;2022-09-21T08:31:20;97701.22;;;17.92
70435;BMP280;57876;47.792;12.960;2022-09-21T08:33:46;97702.69;;;17.93
70435;BMP280;57876;47.792;12.960;2022-09-21T08:36:10;97699.75;;;17.91
70435;BMP280;57876;47.792;12.960;2022-09-21T08:38:36;97705.44;;;17.93
70435;BMP280;57876;47.792;12.960;2022-09-21T08:41:11;97711.63;;;17.93
70435;BMP280;57876;47.792;12.960;2022-09-21T08:43:43;97710.16;;;17.92
70435;BMP280;57876;47.792;12.960;2022-09-21T08:46:19;97712.91;;;17.92
70435;BMP280;57876;47.792;12.960;2022-09-21T08:49:15;97703.22;;;17.92
70435;BMP280;57876;47.792;12.960;2022-09-21T08:51:45;97709.44;;;17.92
70435;BMP280;57876;47.792;12.960;2022-09-21T08:56:48;97697.75;;;17.92
70435;BMP280;57876;47.792;12.960;2022-09-21T08:59:13;97707.25;;;17.91
70435;BMP280;57876;47.792;12.960;2022-09-21T09:04:55;97700.47;;;17.92
70435;BMP280;57876;47.792;12.960;2022-09-21T09:18:31;97697.03;;;17.91
70435;BMP280;57876;47.792;12.960;2022-09-21T09:20:59;97697.75;;;17.92
70435;BMP280;57876;47.792;12.960;2022-09-21T09:23:28;97703.97;;;17.92
70435;BMP280;57876;47.792;12.960;2022-09-21T09:26:02;97702.13;;;17.94
70435;BMP280;57876;47.792;12.960;2022-09-21T09:28:37;97700.66;;;17.93
70435;BMP280;57876;47.792;12.960;2022-09-21T09:31:18;97695.38;;;17.95
70435;BMP280;57876;47.792;12.960;2022-09-21T09:33:55;97698.13;;;17.95
70435;BMP280;57876;47.792;12.960;2022-09-21T09:36:26;97689.34;;;17.97
70435;BMP280;57876;47.792;12.960;2022-09-21T09:38:55;97691.34;;;17.96
70435;BMP280;57876;47.792;12.960;2022-09-21T09:41:55;97687.31;;;17.97
70435;BMP280;57876;47.792;12.960;2022-09-21T09:52:08;97686.03;;;18.06
70435;BMP280;57876;47.792;12.960;2022-09-21T09:54:34;97683.88;;;18.04
70435;BMP280;57876;47.792;12.960;2022-09-21T09:57:00;97680.22;;;18.02
70435;BMP280;57876;47.792;12.960;2022-09-21T09:59:29;97677.47;;;18.02
70435;BMP280;57876;47.792;12.960;2022-09-21T10:02:01;97684.22;;;18.01
70435;BMP280;57876;47.792;12.960;2022-09-21T10:04:26;97678.75;;;18.01
70435;BMP280;57876;47.792;12.960;2022-09-21T10:06:51;97671.84;;;18.00
70435;BMP280;57876;47.792;12.960;2022-09-21T10:09:21;97682.78;;;18.00
70435;BMP280;57876;47.792;12.960;2022-09-21T10:11:46;97678.59;;;17.99
70435;BMP280;57876;47.792;12.960;2022-09-21T10:14:17;97673.84;;;17.99
70435;BMP280;57876;47.792;12.960;2022-09-21T10:16:42;97677.13;;;17.98
70435;BMP280;57876;47.792;12.960;2022-09-21T10:19:15;97677.13;;;17.98
70435;BMP280;57876;47.792;12.960;2022-09-21T10:21:40;97675.09;;;17.98
70435;BMP280;57876;47.792;12.960;2022-09-21T10:24:20;97675.84;;;17.99
70435;BMP280;57876;47.792;12.960;2022-09-21T10:26:54;97675.09;;;17.98
70435;BMP280;57876;47.792;12.960;2022-09-21T10:34:30;97672.56;;;18.00
70435;BMP280;57876;47.792;12.960;2022-09-21T10:36:57;97671.84;;;18.00
70435;BMP280;57876;47.792;12.960;2022-09-21T10:39:34;97669.81;;;18.00
70435;BMP280;57876;47.792;12.960;2022-09-21T10:42:13;97671.84;;;18.00
70435;BMP280;57876;47.792;12.960;2022-09-21T10:47:32;97669.09;;;18.00
70435;BMP280;57876;47.792;12.960;2022-09-21T10:50:00;97671.13;;;17.99
70435;BMP280;57876;47.792;12.960;2022-09-21T10:52:39;97674.56;;;18.00
70435;BMP280;57876;47.792;12.960;2022-09-21T10:55:18;97667.63;;;17.99
70435;BMP280;57876;47.792;12.960;2022-09-21T10:57:44;97666.88;;;17.98
70435;BMP280;57876;47.792;12.960;2022-09-21T11:02:52;97668.38;;;17.99
70435;BMP280;57876;47.792;12.960;2022-09-21T11:05:25;97668.91;;;17.98
70435;BMP280;57876;47.792;12.960;2022-09-21T11:08:10;97656.69;;;17.99
70435;BMP280;57876;47.792;12.960;2022-09-21T11:13:36;97662.16;;;17.99
70435;BMP280;57876;47.792;12.960;2022-09-21T11:16:23;97660.88;;;18.00
70435;BMP280;57876;47.792;12.960;2022-09-21T11:19:17;97663.44;;;17.98
70435;BMP280;57876;47.792;12.960;2022-09-21T11:22:33;97656.50;;;17.97
70435;BMP280;57876;47.792;12.960;2022-09-21T11:24:58;97664.72;;;17.97
70435;BMP280;57876;47.792;12.960;2022-09-21T11:27:43;97659.06;;;17.95
70435;BMP280;57876;47.792;12.960;2022-09-21T11:30:14;97654.88;;;17.94
70435;BMP280;57876;47.792;12.960;2022-09-21T11:32:50;97656.16;;;17.93
70435;BMP280;57876;47.792;12.960;2022-09-21T11:38:12;97643.72;;;17.92
70435;BMP280;57876;47.792;12.960;2022-09-21T11:49:19;97642.25;;;17.91
70435;BMP280;57876;47.792;12.960;2022-09-21T11:57:30;97627.84;;;17.91
70435;BMP280;57876;47.792;12.960;2022-09-21T12:00:06;97623.09;;;17.91
70435;BMP280;57876;47.792;12.960;2022-09-21T12:05:30;97611.44;;;17.91
70435;BMP280;57876;47.792;12.960;2022-09-21T12:19:32;97600.47;;;17.91
70435;BMP280;57876;47.792;12.960;2022-09-21T12:22:08;97602.47;;;17.90
70435;BMP280;57876;47.792;12.960;2022-09-21T12:24:39;97584.06;;;17.91
70435;BMP280;57876;47.792;12.960;2022-09-21T12:27:31;97594.25;;;17.90
70435;BMP280;57876;47.792;12.960;2022-09-21T12:30:13;97589.53;;;17.91
70435;BMP280;57876;47.792;12.960;2022-09-21T12:35:23;97586.03;;;17.90
70435;BMP280;57876;47.792;12.960;2022-09-21T12:38:04;97580.56;;;17.90
70435;BMP280;57876;47.792;12.960;2022-09-21T12:40:37;97578.56;;;17.91
70435;BMP280;57876;47.792;12.960;2022-09-21T12:43:31;97583.31;;;17.90
70435;BMP280;57876;47.792;12.960;2022-09-21T12:46:04;97571.63;;;17.90
70435;BMP280;57876;47.792;12.960;2022-09-21T12:48:37;97571.44;;;17.88
70435;BMP280;57876;47.792;12.960;2022-09-21T12:51:13;97578.38;;;17.89
70435;BMP280;57876;47.792;12.960;2022-09-21T12:53:42;97571.44;;;17.88
70435;BMP280;57876;47.792;12.960;2022-09-21T12:56:49;97571.28;;;17.86
70435;BMP280;57876;47.792;12.960;2022-09-21T13:07:58;97558.88;;;17.85
70435;BMP280;57876;47.792;12.960;2022-09-21T13:12:54;97562.34;;;17.85
70435;BMP280;57876;47.792;12.960;2022-09-21T13:15:25;97569.09;;;17.84
70435;BMP280;57876;47.792;12.960;2022-09-21T13:17:57;97562.16;;;17.83
70435;BMP280;57876;47.792;12.960;2022-09-21T13:20:23;97562.34;;;17.85
70435;BMP280;57876;47.792;12.960;2022-09-21T13:22:47;97553.41;;;17.85
70435;BMP280;57876;47.792;12.960;2022-09-21T13:33:29;97545.19;;;17.85
70435;BMP280;57876;47.792;12.960;2022-09-21T13:41:23;97534.25;;;17.85
70435;BMP280;57876;47.792;12.960;2022-09-21T13:49:01;97530.75;;;17.84
70435;BMP280;57876;47.792;12.960;2022-09-21T13:51:25;97532.22;;;17.85
70435;BMP280;57876;47.792;12.960;2022-09-21T13:53:55;97536.22;;;17.84
70435;BMP280;57876;47.792;12.960;2022-09-21T13:56:24;97532.78;;;17.84
70435;BMP280;57876;47.792;12.960;2022-09-21T13:58:51;97538.97;;;17.84
70435;BMP280;57876;47.792;12.960;2022-09-21T14:01:34;97528.75;;;17.85
70435;BMP280;57876;47.792;12.960;2022-09-21T14:04:04;97528.03;;;17.84
70435;BMP280;57876;47.792;12.960;2022-09-21T14:06:33;97536.22;;;17.84
70435;BMP280;57876;47.792;12.960;2022-09-21T14:09:06;97539.72;;;17.85
70435;BMP280;57876;47.792;12.960;2022-09-21T14:11:36;97535.53;;;17.84
70435;BMP280;57876;47.792;12.960;2022-09-21T14:14:03;97527.31;;;17.84
70435;BMP280;57876;47.792;12.960;2022-09-21T14:18:56;97523.81;;;17.83
70435;BMP280;57876;47.792;12.960;2022-09-21T14:21:21;97523.81;;;17.83
70435;BMP280;57876;47.792;12.960;2022-09-21T14:26:46;97525.28;;;17.84
70435;BMP280;57876;47.792;12.960;2022-09-21T14:29:30;97526.56;;;17.83
70435;BMP280;57876;47.792;12.960;2022-09-21T14:32:00;97529.28;;;17.83
70435;BMP280;57876;47.792;12.960;2022-09-21T14:34:35;97538.25;;;17.84
70435;BMP280;57876;47.792;12.960;2022-09-21T14:37:11;97532.03;;;17.83
70435;BMP280;57876;47.792;12.960;2022-09-21T14:39:42;97534.03;;;17.83
70435;BMP280;57876;47.792;12.960;2022-09-21T14:42:19;97536.75;;;17.83
70435;BMP280;57876;47.792;12.960;2022-09-21T14:44:46;97530.56;;;17.82
70435;BMP280;57876;47.792;12.960;2022-09-21T14:47:24;97532.59;;;17.82
70435;BMP280;57876;47.792;12.960;2022-09-21T14:49:58;97524.38;;;17.82
70435;BMP280;57876;47.792;12.960;2022-09-21T14:55:17;97529.13;;;17.81
70435;BMP280;57876;47.792;12.960;2022-09-21T14:58:15;97522.34;;;17.82
70435;BMP280;57876;47.792;12.960;2022-09-21T15:00:45;97520.94;;;17.81
70435;BMP280;57876;47.792;12.960;2022-09-21T15:06:18;97522.34;;;17.82
70435;BMP280;57876;47.792;12.960;2022-09-21T15:12:14;97516.72;;;17.80
70435;BMP280;57876;47.792;12.960;2022-09-21T15:15:07;97516.72;;;17.80
70435;BMP280;57876;47.792;12.960;2022-09-21T15:17:28;97519.47;;;17.80
70435;BMP280;57876;47.792;12.960;2022-09-21T15:19:59;97518.72;;;17.80
70435;BMP280;57876;47.792;12.960;2022-09-21T15:22:24;97513.25;;;17.80
70435;BMP280;57876;47.792;12.960;2022-09-21T15:24:55;97514.00;;;17.80
70435;BMP280;57876;47.792;12.960;2022-09-21T15:27:23;97506.50;;;17.81
70435;BMP280;57876;47.792;12.960;2022-09-21T15:29:50;97508.66;;;17.82
70435;BMP280;57876;47.792;12.960;2022-09-21T15:35:00;97508.50;;;17.80
70435;BMP280;57876;47.792;12.960;2022-09-21T15:37:25;97507.78;;;17.80
70435;BMP280;57876;47.792;12.960;2022-09-21T15:39:58;97503.75;;;17.81
70435;BMP280;57876;47.792;12.960;2022-09-21T15:42:24;97503.03;;;17.80
70435;BMP280;57876;47.792;12.960;2022-09-21T15:44:49;97509.78;;;17.79
70435;BMP280;57876;47.792;12.960;2022-09-21T15:47:22;97505.78;;;17.80
70435;BMP280;57876;47.792;12.960;2022-09-21T15:49:47;97509.78;;;17.79
70435;BMP280;57876;47.792;12.960;2022-09-21T15:52:34;97508.50;;;17.80
70435;BMP280;57876;47.792;12.960;2022-09-21T15:55:08;97507.78;;;17.80
70435;BMP280;57876;47.792;12.960;2022-09-21T15:57:40;97509.78;;;17.79
70435;BMP280;57876;47.792;12.960;2022-09-21T16:00:17;97512.53;;;17.79
70435;BMP280;57876;47.792;12.960;2022-09-21T16:03:05;97506.50;;;17.81
70435;BMP280;57876;47.792;12.960;2022-09-21T16:05:42;97510.50;;;17.80
70435;BMP280;57876;47.792;12.960;2022-09-21T16:08:33;97509.78;;;17.79
70435;BMP280;57876;47.792;12.960;2022-09-21T16:13:34;97515.97;;;17.80
70435;BMP280;57876;47.792;12.960;2022-09-21T16:16:17;97513.25;;;17.80
70435;BMP280;57876;47.792;12.960;2022-09-21T16:18:50;97512.53;;;17.79
70435;BMP280;57876;47.792;12.960;2022-09-21T16:21:23;97523.47;;;17.79
70435;BMP280;57876;47.792;12.960;2022-09-21T16:23:51;97520.75;;;17.79
70435;BMP280;57876;47.792;12.960;2022-09-21T16:26:30;97522.00;;;17.78
70435;BMP280;57876;47.792;12.960;2022-09-21T16:31:39;97520.56;;;17.77
70435;BMP280;57876;47.792;12.960;2022-09-21T16:34:21;97513.81;;;17.78
70435;BMP280;57876;47.792;12.960;2022-09-21T16:36:50;97536.41;;;17.79
70435;BMP280;57876;47.792;12.960;2022-09-21T16:39:18;97535.69;;;17.78
70435;BMP280;57876;47.792;12.960;2022-09-21T16:41:49;97530.22;;;17.78
70435;BMP280;57876;47.792;12.960;2022-09-21T16:44:16;97535.69;;;17.78
70435;BMP280;57876;47.792;12.960;2022-09-21T16:46:44;97538.44;;;17.78
70435;BMP280;57876;47.792;12.960;2022-09-21T16:49:11;97539.72;;;17.77
70435;BMP280;57876;47.792;12.960;2022-09-21T16:51:38;97535.69;;;17.78
70435;BMP280;57876;47.792;12.960;2022-09-21T16:54:03;97531.50;;;17.77